Time;durP1;ratioP1;P1;durP2;ratioP2;P2;SDS_P1;SDS_P2;PMS_P1;PMS_P2;Temp;Humidity;BMP_temperature;BMP_pressure;BME280_temperature;BME280_humidity;BME280_pressure;Samples;Min_cycle;Max_cycle;Signal;HPM_P1;HPM_P2
2021/08/29 00:00:00;;;;;;;8.07;5.15;;;;;;;;;;5074417;28;20024;-70
2021/08/29 00:02:26;;;;;;;7.20;4.70;;;;;;;;;;5074506;28;20024;-71
2021/08/29 00:04:53;;;;;;;9.55;4.72;;;;;;;;;;5074436;28;20099;-74
2021/08/29 00:07:19;;;;;;;7.85;4.93;;;;;;;;;;5074674;28;20104;-70
2021/08/29 00:09:45;;;;;;;6.43;5.00;;;;;;;;;;5074060;28;20040;-72
2021/08/29 00:12:11;;;;;;;6.10;4.80;;;;;;;;;;5074321;28;20146;-71
2021/08/29 00:14:37;;;;;;;6.50;4.55;;;;;;;;;;5074501;28;20491;-71
2021/08/29 00:17:04;;;;;;;10.20;4.93;;;;;;;;;;5074252;28;20029;-72
2021/08/29 00:19:30;;;;;;;6.50;4.45;;;;;;;;;;5074120;28;20028;-71
2021/08/29 00:21:56;;;;;;;7.70;5.07;;;;;;;;;;5074041;28;20032;-71
2021/08/29 00:24:22;;;;;;;7.10;4.53;;;;;;;;;;5074054;28;20059;-71
2021/08/29 00:26:48;;;;;;;6.32;4.40;;;;;;;;;;5073675;28;20025;-71
2021/08/29 00:29:14;;;;;;;6.78;4.50;;;;;;;;;;5075203;28;20462;-71
2021/08/29 00:31:40;;;;;;;5.68;4.32;;;;;;;;;;5073806;28;20021;-71
2021/08/29 00:34:06;;;;;;;6.80;5.10;;;;;;;;;;5073809;28;20028;-72
2021/08/29 00:36:32;;;;;;;7.85;4.95;;;;;;;;;;5073715;28;20095;-71
2021/08/29 00:38:59;;;;;;;7.38;5.57;;;;;;;;;;5073841;28;20055;-71
2021/08/29 00:41:25;;;;;;;7.93;5.20;;;;;;;;;;5073514;28;20028;-70
2021/08/29 00:43:51;;;;;;;7.55;4.75;;;;;;;;;;5072263;28;20495;-71
2021/08/29 00:46:18;;;;;;;9.57;5.80;;;;;;;;;;5074222;28;20056;-70
2021/08/29 00:48:53;;;;;;;8.40;5.55;;;;;;;;;;5073968;28;20374;-71
2021/08/29 00:51:19;;;;;;;;;;;;;;;;;;5073997;28;20035;-72
2021/08/29 00:53:55;;;;;;;8.43;5.45;;;;;;;;;;5073736;28;20017;-72
2021/08/29 00:56:24;;;;;;;7.30;5.28;;;;;;;;;;5073400;28;20098;-72
2021/08/29 00:58:54;;;;;;;7.22;4.78;;;;;;;;;;5073354;28;20085;-73
2021/08/29 01:01:22;;;;;;;6.38;5.10;;;;;;;;;;5073378;28;20028;-72
2021/08/29 01:03:55;;;;;;;8.95;5.03;;;;;;;;;;5074331;28;20500;-71
2021/08/29 01:06:25;;;;;;;11.25;5.15;;;;;;;;;;5074396;28;20033;-71
2021/08/29 01:08:56;;;;;;;8.55;5.00;;;;;;;;;;5072913;28;20504;-71
2021/08/29 01:11:26;;;;;;;8.32;4.72;;;;;;;;;;5073492;28;20107;-70
2021/08/29 01:13:56;;;;;;;7.63;5.68;;;;;;;;;;5073615;28;20379;-70
2021/08/29 01:16:22;;;;;;;7.90;5.40;;;;;;;;;;5073706;28;20115;-71
2021/08/29 01:18:51;;;;;;;7.72;5.53;;;;;;;;;;5072965;28;20226;-71
2021/08/29 01:21:22;;;;;;;7.88;5.70;;;;;;;;;;5073109;28;20082;-71
2021/08/29 01:23:51;;;;;;;7.63;5.05;;;;;;;;;;5072832;28;20047;-71
2021/08/29 01:26:20;;;;;;;9.90;5.15;;;;;;;;;;5072872;28;20028;-70
2021/08/29 01:28:49;;;;;;;9.73;4.97;;;;;;;;;;5071400;28;20025;-71
2021/08/29 01:31:15;;;;;;;8.63;4.80;;;;;;;;;;5073440;28;20021;-70
2021/08/29 01:33:41;;;;;;;8.02;5.22;;;;;;;;;;5072777;28;20029;-70
2021/08/29 01:36:07;;;;;;;7.70;5.07;;;;;;;;;;5072653;28;20534;-73
2021/08/29 01:38:33;;;;;;;8.48;5.18;;;;;;;;;;5072534;28;20039;-72
2021/08/29 01:41:00;;;;;;;9.93;5.20;;;;;;;;;;5072643;28;20040;-71
2021/08/29 01:43:26;;;;;;;8.30;4.60;;;;;;;;;;5072575;28;20077;-71
2021/08/29 01:45:52;;;;;;;11.55;6.07;;;;;;;;;;5072597;28;20059;-71
2021/08/29 01:48:19;;;;;;;12.40;5.53;;;;;;;;;;5072387;28;20039;-70
2021/08/29 01:50:46;;;;;;;11.27;6.07;;;;;;;;;;5072495;28;20020;-71
2021/08/29 01:53:12;;;;;;;9.52;6.35;;;;;;;;;;5072675;28;20024;-71
2021/08/29 01:55:38;;;;;;;6.95;5.07;;;;;;;;;;5072828;28;20025;-71
2021/08/29 01:58:04;;;;;;;7.07;5.25;;;;;;;;;;5072598;28;20040;-71
2021/08/29 02:00:32;;;;;;;7.38;5.35;;;;;;;;;;5072553;28;20052;-71
2021/08/29 02:02:58;;;;;;;8.40;5.53;;;;;;;;;;5072497;28;20028;-70
2021/08/29 02:05:25;;;;;;;6.75;4.78;;;;;;;;;;5072382;28;20024;-71
2021/08/29 02:07:52;;;;;;;8.93;5.35;;;;;;;;;;5072477;28;20025;-70
2021/08/29 02:10:23;;;;;;;9.40;5.13;;;;;;;;;;5072249;28;20036;-72
2021/08/29 02:12:58;;;;;;;10.30;5.30;;;;;;;;;;5072478;28;20081;-71
2021/08/29 02:15:33;;;;;;;9.55;5.50;;;;;;;;;;5072409;28;20025;-72
2021/08/29 02:17:59;;;;;;;10.20;4.70;;;;;;;;;;5072960;28;20036;-70
2021/08/29 02:20:26;;;;;;;6.80;4.93;;;;;;;;;;5072262;28;20073;-71
2021/08/29 02:22:56;;;;;;;9.23;5.93;;;;;;;;;;5072573;28;20024;-71
2021/08/29 02:25:22;;;;;;;9.73;5.70;;;;;;;;;;5072984;28;20032;-70
2021/08/29 02:27:49;;;;;;;7.95;5.93;;;;;;;;;;5073101;28;20020;-71
2021/08/29 02:30:15;;;;;;;8.07;5.40;;;;;;;;;;5072098;28;20032;-72
2021/08/29 02:32:42;;;;;;;10.85;6.30;;;;;;;;;;5073538;28;20025;-71
2021/08/29 02:35:08;;;;;;;9.98;6.03;;;;;;;;;;5072071;28;20040;-72
2021/08/29 02:37:35;;;;;;;7.90;5.47;;;;;;;;;;5072188;28;20082;-71
2021/08/29 02:40:03;;;;;;;7.93;5.20;;;;;;;;;;5072103;28;20104;-71
2021/08/29 02:42:30;;;;;;;8.98;6.28;;;;;;;;;;5072073;28;20017;-72
2021/08/29 02:44:57;;;;;;;7.82;5.53;;;;;;;;;;5072079;28;20025;-71
2021/08/29 02:47:23;;;;;;;7.43;5.53;;;;;;;;;;5071894;28;20455;-72
2021/08/29 02:49:50;;;;;;;7.97;5.10;;;;;;;;;;5074043;28;20486;-71
2021/08/29 02:52:19;;;;;;;8.93;4.95;;;;;;;;;;5074338;28;20020;-70
2021/08/29 02:54:46;;;;;;;7.85;5.47;;;;;;;;;;5075702;28;20024;-71
2021/08/29 02:57:12;;;;;;;7.68;5.13;;;;;;;;;;5075623;28;20020;-71
2021/08/29 02:59:39;;;;;;;9.68;4.90;;;;;;;;;;5076157;28;20032;-70
2021/08/29 03:02:10;;;;;;;8.27;5.43;;;;;;;;;;5074419;28;20032;-72
2021/08/29 03:04:36;;;;;;;6.78;5.10;;;;;;;;;;5075458;28;20028;-71
2021/08/29 03:07:02;;;;;;;5.82;4.35;;;;;;;;;;5075295;28;20369;-70
2021/08/29 03:09:34;;;;;;;8.07;4.97;;;;;;;;;;5074961;28;20093;-71
2021/08/29 03:12:07;;;;;;;7.97;4.88;;;;;;;;;;5075378;28;20025;-72
2021/08/29 03:14:33;;;;;;;7.35;5.20;;;;;;;;;;5076136;28;20028;-71
2021/08/29 03:16:59;;;;;;;8.82;5.50;;;;;;;;;;5075431;28;20027;-72
2021/08/29 03:19:26;;;;;;;8.20;5.57;;;;;;;;;;5075691;28;20021;-73
2021/08/29 03:21:52;;;;;;;7.22;4.90;;;;;;;;;;5074782;28;20028;-71
2021/08/29 03:24:18;;;;;;;7.65;5.22;;;;;;;;;;5075173;28;20546;-71
2021/08/29 03:26:45;;;;;;;8.57;4.88;;;;;;;;;;5075061;28;20020;-71
2021/08/29 03:29:11;;;;;;;7.53;4.45;;;;;;;;;;5075159;28;20029;-69
2021/08/29 03:31:37;;;;;;;9.25;5.10;;;;;;;;;;5075057;28;20094;-70
2021/08/29 03:34:05;;;;;;;6.60;5.03;;;;;;;;;;5075505;28;20403;-71
2021/08/29 03:36:32;;;;;;;7.80;5.03;;;;;;;;;;5075115;28;20052;-70
2021/08/29 03:38:59;;;;;;;9.70;5.20;;;;;;;;;;5075226;28;20036;-73
2021/08/29 03:41:26;;;;;;;7.47;6.00;;;;;;;;;;5074848;28;20028;-71
2021/08/29 03:43:52;;;;;;;9.13;6.20;;;;;;;;;;5074604;28;20025;-73
2021/08/29 03:46:18;;;;;;;9.40;5.00;;;;;;;;;;5073386;28;20029;-72
2021/08/29 03:48:44;;;;;;;9.68;5.35;;;;;;;;;;5074716;28;20071;-70
2021/08/29 03:51:14;;;;;;;8.15;5.13;;;;;;;;;;5075815;28;20028;-70
2021/08/29 03:53:40;;;;;;;9.52;5.15;;;;;;;;;;5074629;28;20028;-71
2021/08/29 03:56:07;;;;;;;7.72;5.60;;;;;;;;;;5074572;28;20114;-70
2021/08/29 03:58:36;;;;;;;7.97;4.95;;;;;;;;;;5074458;28;20073;-72
2021/08/29 04:01:02;;;;;;;9.90;6.03;;;;;;;;;;5074032;28;20029;-72
2021/08/29 04:03:29;;;;;;;8.60;5.78;;;;;;;;;;5074620;28;20025;-70
2021/08/29 04:05:55;;;;;;;7.38;5.30;;;;;;;;;;5074359;28;20031;-71
2021/08/29 04:08:26;;;;;;;6.45;5.50;;;;;;;;;;5073955;28;20468;-71
2021/08/29 04:10:53;;;;;;;8.40;4.80;;;;;;;;;;5074785;28;20107;-71
2021/08/29 04:13:20;;;;;;;8.70;5.05;;;;;;;;;;5074861;28;20032;-71
2021/08/29 04:15:46;;;;;;;8.45;5.50;;;;;;;;;;5074079;28;20467;-71
2021/08/29 04:18:12;;;;;;;6.88;5.05;;;;;;;;;;5074281;28;20020;-70
2021/08/29 04:20:39;;;;;;;9.68;6.25;;;;;;;;;;5073915;28;20089;-71
2021/08/29 04:23:05;;;;;;;10.02;6.07;;;;;;;;;;5075063;28;20017;-70
2021/08/29 04:25:31;;;;;;;9.55;6.00;;;;;;;;;;5074840;28;20028;-70
2021/08/29 04:27:57;;;;;;;9.75;5.70;;;;;;;;;;5074183;28;20025;-73
2021/08/29 04:30:24;;;;;;;11.35;5.72;;;;;;;;;;5074488;28;20096;-73
2021/08/29 04:32:52;;;;;;;8.40;6.47;;;;;;;;;;5075097;28;20384;-72
2021/08/29 04:35:18;;;;;;;7.85;5.65;;;;;;;;;;5076223;28;20533;-71
2021/08/29 04:37:45;;;;;;;9.27;6.55;;;;;;;;;;5074179;28;20527;-73
2021/08/29 04:40:11;;;;;;;14.45;7.85;;;;;;;;;;5074547;28;20467;-71
2021/08/29 04:42:37;;;;;;;13.70;7.85;;;;;;;;;;5072897;28;20032;-70
2021/08/29 04:45:03;;;;;;;13.70;9.18;;;;;;;;;;5073983;28;20025;-73
2021/08/29 04:47:29;;;;;;;20.50;10.50;;;;;;;;;;5075390;28;20464;-71
2021/08/29 04:49:55;;;;;;;23.20;11.57;;;;;;;;;;5073794;28;20104;-71
2021/08/29 04:52:21;;;;;;;26.52;12.10;;;;;;;;;;5073569;28;20024;-72
2021/08/29 04:54:47;;;;;;;24.02;13.68;;;;;;;;;;5073577;28;20545;-73
2021/08/29 04:57:14;;;;;;;29.10;13.32;;;;;;;;;;5073679;28;20037;-73
2021/08/29 04:59:40;;;;;;;27.63;12.90;;;;;;;;;;5073437;28;20025;-71
2021/08/29 05:02:06;;;;;;;23.27;12.75;;;;;;;;;;5073464;28;20028;-71
2021/08/29 05:04:32;;;;;;;26.90;12.07;;;;;;;;;;5073417;28;20032;-71
2021/08/29 05:06:58;;;;;;;26.23;11.13;;;;;;;;;;5072593;28;20029;-69
2021/08/29 05:09:24;;;;;;;37.33;13.13;;;;;;;;;;5073847;28;20538;-70
2021/08/29 05:11:50;;;;;;;48.50;14.60;;;;;;;;;;5072876;28;20368;-71
2021/08/29 05:14:16;;;;;;;117.50;17.45;;;;;;;;;;5073325;28;20425;-70
2021/08/29 05:16:42;;;;;;;120.28;17.50;;;;;;;;;;5073480;28;20419;-73
2021/08/29 05:19:08;;;;;;;125.55;17.80;;;;;;;;;;5073745;28;20471;-70
2021/08/29 05:21:34;;;;;;;88.32;13.90;;;;;;;;;;5074167;28;20387;-70
2021/08/29 05:24:01;;;;;;;50.58;12.73;;;;;;;;;;5073470;28;20430;-72
2021/08/29 05:26:27;;;;;;;47.97;12.60;;;;;;;;;;5073279;28;20035;-71
2021/08/29 05:28:53;;;;;;;55.03;12.45;;;;;;;;;;5075130;28;20063;-71
2021/08/29 05:31:19;;;;;;;34.88;10.45;;;;;;;;;;5073316;28;20024;-71
2021/08/29 05:33:45;;;;;;;23.15;10.07;;;;;;;;;;5072985;28;20032;-73
2021/08/29 05:36:11;;;;;;;24.05;9.88;;;;;;;;;;5073006;28;20021;-69
2021/08/29 05:38:37;;;;;;;23.15;11.02;;;;;;;;;;5072966;28;20059;-72
2021/08/29 05:41:03;;;;;;;18.65;10.18;;;;;;;;;;5073967;28;20060;-73
2021/08/29 05:43:29;;;;;;;21.17;10.43;;;;;;;;;;5073371;28;20103;-72
2021/08/29 05:45:55;;;;;;;22.60;10.90;;;;;;;;;;5072843;28;20020;-73
2021/08/29 05:48:24;;;;;;;26.25;12.10;;;;;;;;;;5072579;28;20074;-72
2021/08/29 05:50:51;;;;;;;23.95;11.45;;;;;;;;;;5073797;28;20025;-71
2021/08/29 05:53:17;;;;;;;30.38;12.05;;;;;;;;;;5074462;28;20031;-73
2021/08/29 05:55:43;;;;;;;25.45;12.00;;;;;;;;;;5073147;28;20036;-72
2021/08/29 05:58:09;;;;;;;30.23;11.88;;;;;;;;;;5072708;28;20032;-72
2021/08/29 06:00:35;;;;;;;27.23;11.63;;;;;;;;;;5072763;28;20498;-71
2021/08/29 06:03:01;;;;;;;29.65;12.07;;;;;;;;;;5073824;28;20471;-70
2021/08/29 06:05:27;;;;;;;25.67;10.98;;;;;;;;;;5073741;28;20047;-70
2021/08/29 06:07:54;;;;;;;27.02;12.20;;;;;;;;;;5072400;28;20025;-72
2021/08/29 06:10:20;;;;;;;25.77;11.30;;;;;;;;;;5071034;28;20521;-69
2021/08/29 06:12:46;;;;;;;27.92;12.70;;;;;;;;;;5073788;28;20028;-72
2021/08/29 06:15:12;;;;;;;30.10;13.02;;;;;;;;;;5073203;28;20027;-74
2021/08/29 06:17:38;;;;;;;27.67;12.57;;;;;;;;;;5073440;28;20028;-70
2021/08/29 06:20:05;;;;;;;28.70;12.88;;;;;;;;;;5073128;28;20032;-72
2021/08/29 06:22:32;;;;;;;24.10;11.98;;;;;;;;;;5072685;28;20035;-72
2021/08/29 06:24:58;;;;;;;24.80;12.27;;;;;;;;;;5078819;28;20036;-74
2021/08/29 06:27:24;;;;;;;26.63;11.85;;;;;;;;;;5077995;28;20095;-70
2021/08/29 06:29:50;;;;;;;23.10;11.48;;;;;;;;;;5076469;28;20027;-73
2021/08/29 06:32:16;;;;;;;21.55;10.32;;;;;;;;;;5076995;28;20059;-70
2021/08/29 06:34:42;;;;;;;23.67;11.35;;;;;;;;;;5078211;28;20028;-68
2021/08/29 06:37:08;;;;;;;23.38;10.38;;;;;;;;;;5079495;28;20078;-71
2021/08/29 06:39:34;;;;;;;24.55;11.32;;;;;;;;;;5077625;28;20020;-72
2021/08/29 06:42:00;;;;;;;25.15;11.63;;;;;;;;;;5075609;28;20024;-70
2021/08/29 06:44:26;;;;;;;31.98;13.15;;;;;;;;;;5077713;28;20024;-72
2021/08/29 06:46:53;;;;;;;28.85;12.30;;;;;;;;;;5079585;28;20033;-71
2021/08/29 06:49:19;;;;;;;31.67;12.98;;;;;;;;;;5077123;28;20063;-71
2021/08/29 06:51:45;;;;;;;26.45;11.80;;;;;;;;;;5076027;28;20016;-72
2021/08/29 06:54:11;;;;;;;27.42;11.32;;;;;;;;;;5076242;28;20055;-70
2021/08/29 06:56:37;;;;;;;29.17;12.50;;;;;;;;;;5078314;28;20036;-73
2021/08/29 06:59:03;;;;;;;24.95;11.15;;;;;;;;;;5076761;28;20028;-73
2021/08/29 07:01:29;;;;;;;24.48;12.13;;;;;;;;;;5074487;28;20028;-71
2021/08/29 07:03:55;;;;;;;24.77;12.10;;;;;;;;;;5076017;28;20490;-72
2021/08/29 07:06:21;;;;;;;29.73;11.40;;;;;;;;;;5076118;28;20082;-73
2021/08/29 07:08:47;;;;;;;25.13;12.95;;;;;;;;;;5077359;28;20080;-72
2021/08/29 07:11:14;;;;;;;28.75;12.48;;;;;;;;;;5075999;28;20021;-71
2021/08/29 07:13:40;;;;;;;29.50;10.75;;;;;;;;;;5075478;28;20027;-71
2021/08/29 07:16:07;;;;;;;34.00;13.18;;;;;;;;;;5075608;28;20041;-71
2021/08/29 07:18:33;;;;;;;32.58;13.75;;;;;;;;;;5076783;28;20597;-72
2021/08/29 07:20:59;;;;;;;29.77;13.73;;;;;;;;;;5075908;28;20055;-69
2021/08/29 07:23:28;;;;;;;26.35;13.43;;;;;;;;;;5076941;28;20071;-72
2021/08/29 07:26:00;;;;;;;25.58;12.57;;;;;;;;;;5075907;28;20112;-71
2021/08/29 07:28:26;;;;;;;35.58;12.85;;;;;;;;;;5076131;28;20029;-71
2021/08/29 07:30:52;;;;;;;26.73;12.80;;;;;;;;;;5076309;28;20025;-71
2021/08/29 07:33:19;;;;;;;32.42;12.40;;;;;;;;;;5075936;28;20091;-71
2021/08/29 07:35:45;;;;;;;28.95;12.60;;;;;;;;;;5074468;28;20024;-70
2021/08/29 07:38:11;;;;;;;32.67;13.27;;;;;;;;;;5075231;28;20567;-72
2021/08/29 07:40:37;;;;;;;26.20;11.60;;;;;;;;;;5075807;28;20085;-71
2021/08/29 07:43:03;;;;;;;29.45;11.38;;;;;;;;;;5075959;28;20016;-72
2021/08/29 07:45:30;;;;;;;28.65;13.73;;;;;;;;;;5075051;28;20029;-73
2021/08/29 07:47:56;;;;;;;27.20;11.77;;;;;;;;;;5074902;28;20032;-73
2021/08/29 07:50:22;;;;;;;25.98;12.32;;;;;;;;;;5076102;28;20555;-70
2021/08/29 07:52:49;;;;;;;35.33;13.27;;;;;;;;;;5077068;28;20029;-72
2021/08/29 07:55:15;;;;;;;28.83;12.20;;;;;;;;;;5075571;28;20020;-71
2021/08/29 07:57:41;;;;;;;29.65;12.70;;;;;;;;;;5074677;28;20028;-71
2021/08/29 08:00:08;;;;;;;25.52;11.85;;;;;;;;;;5075364;28;20400;-72
2021/08/29 08:02:34;;;;;;;29.85;12.80;;;;;;;;;;5075739;28;20032;-72
2021/08/29 08:05:00;;;;;;;27.73;12.80;;;;;;;;;;5075201;28;20383;-72
2021/08/29 08:07:26;;;;;;;30.15;12.82;;;;;;;;;;5074416;28;20024;-71
2021/08/29 08:09:52;;;;;;;30.35;13.32;;;;;;;;;;5074198;28;20041;-71
2021/08/29 08:12:18;;;;;;;37.30;15.00;;;;;;;;;;5074429;28;20032;-70
2021/08/29 08:14:44;;;;;;;38.40;15.85;;;;;;;;;;5074111;28;20034;-70
2021/08/29 08:17:10;;;;;;;32.50;14.82;;;;;;;;;;5074175;28;20021;-70
2021/08/29 08:19:36;;;;;;;36.80;14.98;;;;;;;;;;5074347;28;20024;-70
2021/08/29 08:22:02;;;;;;;32.75;14.35;;;;;;;;;;5074010;28;20506;-73
2021/08/29 08:24:28;;;;;;;38.72;17.52;;;;;;;;;;5074641;28;20538;-71
2021/08/29 08:26:54;;;;;;;34.72;15.18;;;;;;;;;;5074420;28;20062;-71
2021/08/29 08:29:20;;;;;;;34.15;15.23;;;;;;;;;;5075045;28;20025;-70
2021/08/29 08:31:46;;;;;;;35.78;14.85;;;;;;;;;;5074109;28;20030;-71
2021/08/29 08:34:13;;;;;;;35.53;14.82;;;;;;;;;;5074857;28;20020;-71
2021/08/29 08:36:39;;;;;;;35.20;16.30;;;;;;;;;;5074798;28;20047;-71
2021/08/29 08:39:05;;;;;;;38.40;15.57;;;;;;;;;;5074422;28;20082;-70
2021/08/29 08:41:31;;;;;;;39.08;14.57;;;;;;;;;;5074155;28;20024;-72
2021/08/29 08:43:57;;;;;;;37.70;14.98;;;;;;;;;;5072831;28;20115;-72
2021/08/29 08:46:23;;;;;;;32.65;14.60;;;;;;;;;;5073737;28;20033;-71
2021/08/29 08:48:50;;;;;;;38.70;15.38;;;;;;;;;;5075000;28;20047;-71
2021/08/29 08:51:25;;;;;;;32.33;14.65;;;;;;;;;;5073573;28;20101;-71
2021/08/29 08:53:52;;;;;;;34.97;16.25;;;;;;;;;;5074130;28;20017;-71
2021/08/29 08:56:19;;;;;;;36.25;15.40;;;;;;;;;;5075153;28;20029;-71
2021/08/29 08:58:45;;;;;;;26.13;13.57;;;;;;;;;;5075203;28;20028;-72
2021/08/29 09:01:11;;;;;;;29.30;13.65;;;;;;;;;;5075440;28;20017;-71
2021/08/29 09:03:38;;;;;;;29.65;13.88;;;;;;;;;;5073414;28;20107;-72
2021/08/29 09:06:08;;;;;;;25.30;12.48;;;;;;;;;;5073654;28;20024;-71
2021/08/29 09:08:34;;;;;;;26.58;12.27;;;;;;;;;;5073534;28;20117;-71
2021/08/29 09:11:01;;;;;;;21.63;11.43;;;;;;;;;;5074151;28;20037;-71
2021/08/29 09:13:27;;;;;;;24.70;12.90;;;;;;;;;;5075052;28;20099;-72
2021/08/29 09:16:12;;;;;;;20.15;10.77;;;;;;;;;;5073126;28;20482;-71
2021/08/29 09:18:51;;;;;;;18.55;9.57;;;;;;;;;;5073780;28;20032;-72
2021/08/29 09:21:21;;;;;;;15.70;10.00;;;;;;;;;;5073905;28;20070;-72
2021/08/29 09:23:47;;;;;;;15.18;8.88;;;;;;;;;;5073444;28;20040;-73
2021/08/29 09:26:15;;;;;;;16.77;9.52;;;;;;;;;;5073704;28;20433;-73
2021/08/29 09:28:41;;;;;;;16.23;8.75;;;;;;;;;;5073378;28;20032;-71
2021/08/29 09:31:07;;;;;;;16.02;9.55;;;;;;;;;;5074028;28;20095;-72
2021/08/29 09:33:33;;;;;;;13.93;8.48;;;;;;;;;;5073295;28;20077;-72
2021/08/29 09:35:59;;;;;;;15.07;9.23;;;;;;;;;;5073058;28;20025;-71
2021/08/29 09:38:26;;;;;;;12.70;8.20;;;;;;;;;;5073045;28;20020;-73
2021/08/29 09:40:54;;;;;;;13.70;8.65;;;;;;;;;;5073407;28;20074;-72
2021/08/29 09:43:34;;;;;;;11.85;8.32;;;;;;;;;;5073658;28;20032;-71
2021/08/29 09:46:06;;;;;;;15.02;8.25;;;;;;;;;;5073930;28;20106;-74
2021/08/29 09:48:32;;;;;;;10.55;6.90;;;;;;;;;;5072939;28;20056;-74
2021/08/29 09:50:59;;;;;;;10.65;6.22;;;;;;;;;;5072770;28;20052;-72
2021/08/29 09:53:25;;;;;;;8.43;6.05;;;;;;;;;;5073609;28;20021;-71
2021/08/29 09:55:51;;;;;;;8.93;6.43;;;;;;;;;;5071905;28;20103;-72
2021/08/29 09:58:23;;;;;;;9.65;6.28;;;;;;;;;;5072301;28;20162;-74
2021/08/29 10:01:09;;;;;;;9.52;6.68;;;;;;;;;;5072643;28;20113;-71
2021/08/29 10:03:36;;;;;;;8.73;6.70;;;;;;;;;;5073346;28;20016;-71
2021/08/29 10:06:14;;;;;;;8.45;5.95;;;;;;;;;;5071775;28;20021;-72
2021/08/29 10:08:44;;;;;;;9.75;6.00;;;;;;;;;;5072613;28;20032;-71
2021/08/29 10:11:11;;;;;;;6.80;5.70;;;;;;;;;;5073018;28;20135;-73
2021/08/29 10:13:38;;;;;;;7.78;5.43;;;;;;;;;;5073039;28;20031;-71
2021/08/29 10:16:05;;;;;;;7.07;5.05;;;;;;;;;;5073853;28;20394;-72
2021/08/29 10:18:35;;;;;;;9.88;5.50;;;;;;;;;;5072393;28;20095;-71
2021/08/29 10:21:01;;;;;;;8.25;6.18;;;;;;;;;;5072435;28;20024;-71
2021/08/29 10:23:28;;;;;;;8.02;5.90;;;;;;;;;;5072915;28;20040;-72
2021/08/29 10:25:56;;;;;;;9.10;6.40;;;;;;;;;;5072723;28;20055;-73
2021/08/29 10:28:24;;;;;;;8.50;6.13;;;;;;;;;;5073130;28;20021;-71
2021/08/29 10:30:55;;;;;;;8.20;5.88;;;;;;;;;;5072575;28;20024;-72
2021/08/29 10:33:21;;;;;;;9.43;6.68;;;;;;;;;;5072599;28;20043;-71
2021/08/29 10:35:48;;;;;;;9.57;6.68;;;;;;;;;;5073295;28;20028;-71
2021/08/29 10:38:14;;;;;;;10.18;6.32;;;;;;;;;;5072470;28;20032;-72
2021/08/29 10:40:41;;;;;;;7.20;5.88;;;;;;;;;;5072192;28;20024;-72
2021/08/29 10:43:07;;;;;;;9.13;6.55;;;;;;;;;;5072155;28;20020;-72
2021/08/29 10:45:34;;;;;;;9.13;7.20;;;;;;;;;;5072699;28;20391;-71
2021/08/29 10:48:00;;;;;;;9.27;7.18;;;;;;;;;;5074965;28;20024;-72
2021/08/29 10:50:26;;;;;;;9.30;6.25;;;;;;;;;;5072284;28;20447;-71
2021/08/29 10:52:52;;;;;;;9.80;6.53;;;;;;;;;;5072241;28;20017;-71
2021/08/29 10:55:18;;;;;;;7.00;5.40;;;;;;;;;;5072450;28;20025;-73
2021/08/29 10:57:50;;;;;;;8.93;4.95;;;;;;;;;;5073600;28;20025;-72
2021/08/29 11:00:26;;;;;;;7.53;4.90;;;;;;;;;;5075118;28;20028;-70
2021/08/29 11:02:53;;;;;;;6.13;4.55;;;;;;;;;;5072323;28;20024;-74
2021/08/29 11:05:22;;;;;;;6.70;5.57;;;;;;;;;;5072230;28;20028;-71
2021/08/29 11:07:49;;;;;;;7.78;5.55;;;;;;;;;;5071931;28;20056;-71
2021/08/29 11:10:36;;;;;;;8.48;5.88;;;;;;;;;;5073456;28;20040;-72
2021/08/29 11:13:23;;;;;;;8.50;6.28;;;;;;;;;;5075536;28;20066;-71
2021/08/29 11:16:11;;;;;;;8.43;6.20;;;;;;;;;;5075602;28;20025;-72
2021/08/29 11:18:56;;;;;;;8.57;6.30;;;;;;;;;;5076293;28;20028;-71
2021/08/29 11:21:22;;;;;;;7.35;5.82;;;;;;;;;;5075456;28;20103;-70
2021/08/29 11:23:48;;;;;;;7.85;5.88;;;;;;;;;;5075461;28;20047;-72
2021/08/29 11:26:35;;;;;;;8.40;6.00;;;;;;;;;;5075426;28;20028;-71
2021/08/29 11:29:01;;;;;;;8.25;5.93;;;;;;;;;;5075271;28;20021;-71
2021/08/29 11:31:45;;;;;;;6.72;4.95;;;;;;;;;;5075481;28;20023;-71
2021/08/29 11:34:12;;;;;;;7.95;6.00;;;;;;;;;;5075611;28;20045;-73
2021/08/29 11:36:38;;;;;;;8.23;6.65;;;;;;;;;;5075253;28;20020;-73
2021/08/29 11:39:04;;;;;;;7.80;5.38;;;;;;;;;;5075448;28;20059;-72
2021/08/29 11:41:30;;;;;;;7.93;5.82;;;;;;;;;;5075678;28;20021;-72
2021/08/29 11:43:57;;;;;;;6.72;4.93;;;;;;;;;;5076140;28;20074;-72
2021/08/29 11:46:28;;;;;;;6.85;4.93;;;;;;;;;;5074230;28;20024;-71
2021/08/29 11:48:58;;;;;;;6.60;5.00;;;;;;;;;;5075681;28;20479;-74
2021/08/29 11:51:27;;;;;;;5.97;4.45;;;;;;;;;;5075793;28;20053;-73
2021/08/29 11:53:53;;;;;;;5.75;4.10;;;;;;;;;;5074554;28;20020;-71
2021/08/29 11:56:19;;;;;;;7.47;5.03;;;;;;;;;;5075695;28;20387;-71
2021/08/29 11:58:46;;;;;;;6.22;4.57;;;;;;;;;;5075201;28;20471;-71
2021/08/29 12:01:12;;;;;;;6.60;5.03;;;;;;;;;;5075221;28;20025;-70
2021/08/29 12:03:39;;;;;;;7.45;5.22;;;;;;;;;;5075081;28;20025;-72
2021/08/29 12:06:24;;;;;;;7.25;5.15;;;;;;;;;;5075055;28;20024;-72
2021/08/29 12:08:50;;;;;;;5.82;4.65;;;;;;;;;;5074632;28;20028;-72
2021/08/29 12:11:16;;;;;;;5.55;4.60;;;;;;;;;;5074880;28;20034;-71
2021/08/29 12:13:42;;;;;;;6.97;4.97;;;;;;;;;;5074957;28;20095;-72
2021/08/29 12:16:08;;;;;;;6.35;5.10;;;;;;;;;;5074750;28;20025;-72
2021/08/29 12:18:36;;;;;;;6.82;5.70;;;;;;;;;;5074746;28;20476;-72
2021/08/29 12:21:07;;;;;;;6.95;5.32;;;;;;;;;;5075637;28;20020;-71
2021/08/29 12:23:33;;;;;;;5.95;5.22;;;;;;;;;;5074330;28;20025;-71
2021/08/29 12:26:00;;;;;;;6.35;4.78;;;;;;;;;;5075055;28;20097;-71
2021/08/29 12:28:27;;;;;;;6.35;5.20;;;;;;;;;;5074808;28;20031;-72
2021/08/29 12:30:55;;;;;;;6.05;5.10;;;;;;;;;;5075172;28;20067;-72
2021/08/29 12:33:22;;;;;;;6.95;4.80;;;;;;;;;;5073192;28;20060;-72
2021/08/29 12:35:48;;;;;;;6.35;4.88;;;;;;;;;;5074299;28;20031;-73
2021/08/29 12:38:20;;;;;;;6.78;5.22;;;;;;;;;;5074309;28;20369;-72
2021/08/29 12:40:46;;;;;;;6.25;4.88;;;;;;;;;;5074223;28;20420;-72
2021/08/29 12:43:12;;;;;;;8.30;4.38;;;;;;;;;;5073930;28;20112;-71
2021/08/29 12:45:39;;;;;;;6.13;4.53;;;;;;;;;;5074276;28;20024;-72
2021/08/29 12:48:05;;;;;;;6.35;4.55;;;;;;;;;;5073936;28;20029;-70
2021/08/29 12:50:31;;;;;;;5.32;4.65;;;;;;;;;;5073959;28;20076;-72
2021/08/29 12:53:06;;;;;;;6.80;4.50;;;;;;;;;;5073806;28;20487;-73
2021/08/29 12:55:32;;;;;;;6.60;4.53;;;;;;;;;;5074495;28;20021;-73
2021/08/29 12:58:01;;;;;;;5.38;4.25;;;;;;;;;;5074187;28;20028;-71
2021/08/29 13:00:37;;;;;;;5.78;3.90;;;;;;;;;;5074234;28;20021;-71
2021/08/29 13:03:03;;;;;;;6.13;3.70;;;;;;;;;;5073877;28;20040;-70
2021/08/29 13:05:40;;;;;;;6.85;4.35;;;;;;;;;;5074563;28;20054;-72
2021/08/29 13:08:07;;;;;;;4.93;4.18;;;;;;;;;;5073136;28;20570;-72
2021/08/29 13:10:33;;;;;;;4.53;3.65;;;;;;;;;;5073977;28;20097;-72
2021/08/29 13:13:03;;;;;;;5.40;3.97;;;;;;;;;;5074182;28;20464;-72
2021/08/29 13:15:30;;;;;;;6.53;3.70;;;;;;;;;;5075338;28;20021;-73
2021/08/29 13:17:56;;;;;;;4.57;3.40;;;;;;;;;;5074523;28;20387;-71
2021/08/29 13:20:33;;;;;;;4.63;3.90;;;;;;;;;;5075339;28;20166;-70
2021/08/29 13:22:59;;;;;;;4.63;3.80;;;;;;;;;;5073778;28;20035;-71
2021/08/29 13:25:29;;;;;;;5.32;3.60;;;;;;;;;;5073223;28;20021;-70
2021/08/29 13:27:57;;;;;;;6.22;3.45;;;;;;;;;;5073051;28;20024;-71
2021/08/29 13:30:24;;;;;;;5.63;3.60;;;;;;;;;;5073241;28;20020;-71
2021/08/29 13:32:51;;;;;;;5.10;3.53;;;;;;;;;;5072664;28;20471;-70
2021/08/29 13:35:23;;;;;;;7.47;3.47;;;;;;;;;;5073158;28;20030;-68
2021/08/29 13:37:51;;;;;;;5.00;4.05;;;;;;;;;;5073424;28;20105;-70
2021/08/29 13:40:19;;;;;;;4.75;3.40;;;;;;;;;;5074173;28;20027;-69
2021/08/29 13:42:49;;;;;;;6.28;3.92;;;;;;;;;;5074176;28;20487;-69
2021/08/29 13:45:16;;;;;;;4.63;3.63;;;;;;;;;;5076020;28;20033;-71
2021/08/29 13:47:42;;;;;;;7.35;4.15;;;;;;;;;;5075254;28;20070;-73
2021/08/29 13:50:08;;;;;;;4.43;3.63;;;;;;;;;;5073614;28;20036;-71
2021/08/29 13:52:38;;;;;;;4.88;3.95;;;;;;;;;;5070885;28;20028;-69
2021/08/29 13:55:07;;;;;;;4.43;3.67;;;;;;;;;;5071703;28;20021;-70
2021/08/29 13:57:33;;;;;;;5.50;4.00;;;;;;;;;;5072474;28;20032;-70
2021/08/29 13:59:59;;;;;;;4.32;3.30;;;;;;;;;;5072412;28;20028;-70
2021/08/29 14:02:25;;;;;;;4.75;3.50;;;;;;;;;;5072049;28;20590;-73
2021/08/29 14:04:51;;;;;;;5.72;4.07;;;;;;;;;;5072537;28;20511;-71
2021/08/29 14:07:17;;;;;;;4.63;3.70;;;;;;;;;;5073726;28;20035;-70
2021/08/29 14:09:43;;;;;;;3.67;3.15;;;;;;;;;;5073040;28;20047;-72
2021/08/29 14:12:09;;;;;;;4.70;3.65;;;;;;;;;;5073191;28;20410;-72
2021/08/29 14:14:36;;;;;;;3.63;2.75;;;;;;;;;;5072263;28;20021;-70
2021/08/29 14:17:02;;;;;;;4.20;2.90;;;;;;;;;;5071721;28;20024;-70
2021/08/29 14:19:28;;;;;;;3.40;2.80;;;;;;;;;;5072372;28;20097;-69
2021/08/29 14:21:54;;;;;;;4.30;3.45;;;;;;;;;;5070338;28;20028;-72
2021/08/29 14:24:20;;;;;;;4.15;3.00;;;;;;;;;;5074008;28;20060;-70
2021/08/29 14:26:46;;;;;;;4.60;3.33;;;;;;;;;;5071271;28;20365;-71
2021/08/29 14:29:12;;;;;;;4.10;3.08;;;;;;;;;;5069335;28;20025;-70
2021/08/29 14:31:38;;;;;;;3.65;2.80;;;;;;;;;;5070680;28;20075;-70
2021/08/29 14:34:05;;;;;;;3.35;2.83;;;;;;;;;;5071049;28;20471;-71